Terminal Aerodrome Forecast
Issued by NWS

Home | Current Version | Previous Version | Text Only | Print | Product List | Glossary Off
Versions: 1 2 3 4 5 6 7 8 9 10 11 12 13 14

000
FTUS43 KPAH 240705 AAA
TAFCGI
TAF AMD
KCGI 240705Z 2407/2506 00000KT P6SM SKC
     FM240900 00000KT 2SM BR BCFG SKC
     FM241300 VRB02KT P6SM SKC
     FM241600 14005KT P6SM SCT050
     FM250000 00000KT P6SM SKC=

USA.gov is the U.S. government's official web portal to all federal, state and local government web resources and services.